sensor_id;sensor_type;location;lat;lon;timestamp;pressure;altitude;pressure_sealevel;temperature;humidity
44531;BME280;30240;47.418;0.700;2023-01-31T00:00:33;101811.8896484375;;;5.67;96.63
44531;BME280;30240;47.418;0.700;2023-01-31T00:02:58;101805.10864257812;;;5.7;96.67
44531;BME280;30240;47.418;0.700;2023-01-31T00:05:25;101806.4208984375;;;5.7;96.67
44531;BME280;30240;47.418;0.700;2023-01-31T00:07:48;101813.17138671875;;;5.61;96.68
44531;BME280;30240;47.418;0.700;2023-01-31T00:10:14;101803.79638671875;;;5.69;96.71
44531;BME280;30240;47.418;0.700;2023-01-31T00:12:39;101803.79638671875;;;5.69;96.71
44531;BME280;30240;47.418;0.700;2023-01-31T00:15:04;101799.77416992188;;;5.63;96.76
44531;BME280;30240;47.418;0.700;2023-01-31T00:17:29;101793.06030273438;;;5.66;96.83
44531;BME280;30240;47.418;0.700;2023-01-31T00:19:54;101782.97119140625;;;5.63;96.88
44531;BME280;30240;47.418;0.700;2023-01-31T00:22:18;101790.92407226562;;;5.64;96.93
44531;BME280;30240;47.418;0.700;2023-01-31T00:24:43;101790.92407226562;;;5.64;96.93
44531;BME280;30240;47.418;0.700;2023-01-31T00:27:08;101787.890625;;;5.61;96.93
44531;BME280;30240;47.418;0.700;2023-01-31T00:29:33;101784.14306640625;;;5.64;96.92
44531;BME280;30240;47.418;0.700;2023-01-31T00:31:58;101773.35815429688;;;5.66;96.95
44531;BME280;30240;47.418;0.700;2023-01-31T00:34:24;101762.060546875;;;5.64;96.94
44531;BME280;30240;47.418;0.700;2023-01-31T00:36:48;101762.060546875;;;5.64;96.94
44531;BME280;30240;47.418;0.700;2023-01-31T00:39:13;101762.60986328125;;;5.67;97.0
44531;BME280;30240;47.418;0.700;2023-01-31T00:41:38;101767.66967773438;;;5.61;96.99
44531;BME280;30240;47.418;0.700;2023-01-31T00:44:04;101759.8876953125;;;5.61;97.0
44531;BME280;30240;47.418;0.700;2023-01-31T00:46:29;101751.0986328125;;;5.59;97.02
44531;BME280;30240;47.418;0.700;2023-01-31T00:48:54;101751.0986328125;;;5.59;97.02
44531;BME280;30240;47.418;0.700;2023-01-31T00:51:19;101750.927734375;;;5.64;97.02
44531;BME280;30240;47.418;0.700;2023-01-31T00:53:44;101756.787109375;;;5.69;97.02
44531;BME280;30240;47.418;0.700;2023-01-31T00:56:11;101769.74487304688;;;5.63;97.05
44531;BME280;30240;47.418;0.700;2023-01-31T00:58:34;101772.73559570312;;;5.61;97.09
44531;BME280;30240;47.418;0.700;2023-01-31T01:01:04;101765.78369140625;;;5.56;97.11
44531;BME280;30240;47.418;0.700;2023-01-31T01:03:24;101765.78369140625;;;5.56;97.11
44531;BME280;30240;47.418;0.700;2023-01-31T01:05:49;101766.77856445312;;;5.64;97.12
44531;BME280;30240;47.418;0.700;2023-01-31T01:08:13;101765.17333984375;;;5.63;97.18
44531;BME280;30240;47.418;0.700;2023-01-31T01:10:38;101766.07666015625;;;5.52;97.18
44531;BME280;30240;47.418;0.700;2023-01-31T01:13:04;101760.87646484375;;;5.59;97.18
44531;BME280;30240;47.418;0.700;2023-01-31T01:15:28;101760.87646484375;;;5.59;97.18
44531;BME280;30240;47.418;0.700;2023-01-31T01:17:54;101772.8271484375;;;5.67;97.22
44531;BME280;30240;47.418;0.700;2023-01-31T01:20:18;101764.90478515625;;;5.66;97.21
44531;BME280;30240;47.418;0.700;2023-01-31T01:22:44;101768.17016601562;;;5.67;97.24
44531;BME280;30240;47.418;0.700;2023-01-31T01:25:09;101769.4091796875;;;5.63;97.25
44531;BME280;30240;47.418;0.700;2023-01-31T01:27:34;101769.4091796875;;;5.63;97.25
44531;BME280;30240;47.418;0.700;2023-01-31T01:29:59;101766.99829101562;;;5.75;97.28
44531;BME280;30240;47.418;0.700;2023-01-31T01:32:23;101767.8955078125;;;5.75;97.3
44531;BME280;30240;47.418;0.700;2023-01-31T01:34:49;101764.70336914062;;;5.73;97.28
44531;BME280;30240;47.418;0.700;2023-01-31T01:37:13;101769.52514648438;;;5.73;97.29
44531;BME280;30240;47.418;0.700;2023-01-31T01:39:39;101769.52514648438;;;5.73;97.29
44531;BME280;30240;47.418;0.700;2023-01-31T01:42:04;101783.8623046875;;;5.74;97.33
44531;BME280;30240;47.418;0.700;2023-01-31T01:44:43;101781.79931640625;;;5.73;97.29
44531;BME280;30240;47.418;0.700;2023-01-31T01:46:53;101778.76586914062;;;5.67;97.29
44531;BME280;30240;47.418;0.700;2023-01-31T01:49:30;101785.82763671875;;;5.75;97.3
44531;BME280;30240;47.418;0.700;2023-01-31T01:51:45;101785.82763671875;;;5.75;97.3
44531;BME280;30240;47.418;0.700;2023-01-31T01:54:12;101788.0615234375;;;5.63;97.35
44531;BME280;30240;47.418;0.700;2023-01-31T01:56:36;101794.98291015625;;;5.73;97.34
44531;BME280;30240;47.418;0.700;2023-01-31T01:59:02;101781.787109375;;;5.61;97.32
44531;BME280;30240;47.418;0.700;2023-01-31T02:01:27;101784.21630859375;;;5.54;97.34
44531;BME280;30240;47.418;0.700;2023-01-31T02:03:50;101784.21630859375;;;5.54;97.34
44531;BME280;30240;47.418;0.700;2023-01-31T02:06:14;101786.89575195312;;;5.47;97.31
44531;BME280;30240;47.418;0.700;2023-01-31T02:08:40;101776.45263671875;;;5.36;97.34
44531;BME280;30240;47.418;0.700;2023-01-31T02:11:07;101776.64184570312;;;5.36;97.37
44531;BME280;30240;47.418;0.700;2023-01-31T02:13:29;101774.8046875;;;5.36;97.34
44531;BME280;30240;47.418;0.700;2023-01-31T02:15:54;101774.8046875;;;5.36;97.34
44531;BME280;30240;47.418;0.700;2023-01-31T02:18:20;101774.74975585938;;;5.27;97.32
44531;BME280;30240;47.418;0.700;2023-01-31T02:21:18;101776.20849609375;;;5.32;97.32
44531;BME280;30240;47.418;0.700;2023-01-31T02:23:20;101775.45166015625;;;5.39;97.35
44531;BME280;30240;47.418;0.700;2023-01-31T02:26:36;101766.6015625;;;5.32;97.35
44531;BME280;30240;47.418;0.700;2023-01-31T02:27:03;101766.6015625;;;5.32;97.35
44531;BME280;30240;47.418;0.700;2023-01-31T02:27:14;101766.6015625;;;5.32;97.35
44531;BME280;30240;47.418;0.700;2023-01-31T02:28:11;101766.6015625;;;5.32;97.35
44531;BME280;30240;47.418;0.700;2023-01-31T02:28:21;101766.6015625;;;5.32;97.35
44531;BME280;30240;47.418;0.700;2023-01-31T02:28:51;101766.6015625;;;5.32;97.35
44531;BME280;30240;47.418;0.700;2023-01-31T02:31:11;101756.005859375;;;5.29;97.32
44531;BME280;30240;47.418;0.700;2023-01-31T02:31:41;101756.005859375;;;5.29;97.32
44531;BME280;30240;47.418;0.700;2023-01-31T02:31:49;101756.005859375;;;5.29;97.32
44531;BME280;30240;47.418;0.700;2023-01-31T02:32:56;101756.28051757812;;;5.25;97.3
44531;BME280;30240;47.418;0.700;2023-01-31T02:35:20;101754.13818359375;;;5.21;97.32
44531;BME280;30240;47.418;0.700;2023-01-31T02:37:43;101744.970703125;;;5.11;97.33
44531;BME280;30240;47.418;0.700;2023-01-31T02:37:50;101744.970703125;;;5.11;97.33
44531;BME280;30240;47.418;0.700;2023-01-31T02:37:55;101744.970703125;;;5.11;97.33
44531;BME280;30240;47.418;0.700;2023-01-31T02:40:09;101749.267578125;;;5.1;97.29
44531;BME280;30240;47.418;0.700;2023-01-31T02:40:16;101749.267578125;;;5.1;97.29
44531;BME280;30240;47.418;0.700;2023-01-31T02:42:34;101749.267578125;;;5.1;97.29
44531;BME280;30240;47.418;0.700;2023-01-31T02:44:59;101750.5615234375;;;5.1;97.32
44531;BME280;30240;47.418;0.700;2023-01-31T02:47:29;101752.70385742188;;;5.1;97.31
44531;BME280;30240;47.418;0.700;2023-01-31T02:49:48;101755.21850585938;;;5.05;97.33
44531;BME280;30240;47.418;0.700;2023-01-31T02:52:15;101748.59619140625;;;5.05;97.32
44531;BME280;30240;47.418;0.700;2023-01-31T02:54:34;101748.59619140625;;;5.05;97.32
44531;BME280;30240;47.418;0.700;2023-01-31T02:56:58;101753.64990234375;;;4.95;97.31
44531;BME280;30240;47.418;0.700;2023-01-31T02:59:24;101751.54418945312;;;5.0;97.28
44531;BME280;30240;47.418;0.700;2023-01-31T03:01:57;101761.74926757812;;;4.95;97.25
44531;BME280;30240;47.418;0.700;2023-01-31T03:04:14;101764.48364257812;;;4.93;97.24
44531;BME280;30240;47.418;0.700;2023-01-31T03:06:50;101764.48364257812;;;4.93;97.24
44531;BME280;30240;47.418;0.700;2023-01-31T03:09:07;101766.80297851562;;;4.9;97.25
44531;BME280;30240;47.418;0.700;2023-01-31T03:11:38;101761.5966796875;;;4.9;97.21
44531;BME280;30240;47.418;0.700;2023-01-31T03:13:57;101764.23950195312;;;4.9;97.2
44531;BME280;30240;47.418;0.700;2023-01-31T03:16:23;101764.61181640625;;;4.93;97.16
44531;BME280;30240;47.418;0.700;2023-01-31T03:18:48;101764.61181640625;;;4.93;97.16
44531;BME280;30240;47.418;0.700;2023-01-31T03:21:11;101756.86645507812;;;4.93;97.11
44531;BME280;30240;47.418;0.700;2023-01-31T03:23:34;101756.89086914062;;;5.0;97.13
44531;BME280;30240;47.418;0.700;2023-01-31T03:26:00;101759.3994140625;;;5.01;97.09
44531;BME280;30240;47.418;0.700;2023-01-31T03:28:26;101759.46655273438;;;4.9;97.06
44531;BME280;30240;47.418;0.700;2023-01-31T03:30:53;101759.46655273438;;;4.9;97.06
44531;BME280;30240;47.418;0.700;2023-01-31T03:33:16;101758.39233398438;;;4.94;97.0
44531;BME280;30240;47.418;0.700;2023-01-31T03:35:40;101749.9755859375;;;4.9;96.97
44531;BME280;30240;47.418;0.700;2023-01-31T03:38:07;101750.60424804688;;;4.86;96.94
44531;BME280;30240;47.418;0.700;2023-01-31T03:40:30;101750.86669921875;;;4.87;96.93
44531;BME280;30240;47.418;0.700;2023-01-31T03:42:56;101750.86669921875;;;4.87;96.93
44531;BME280;30240;47.418;0.700;2023-01-31T03:45:27;101746.73461914062;;;4.81;96.92
44531;BME280;30240;47.418;0.700;2023-01-31T03:47:45;101749.39575195312;;;4.72;96.92
44531;BME280;30240;47.418;0.700;2023-01-31T03:50:12;101754.54711914062;;;4.6;96.94
44531;BME280;30240;47.418;0.700;2023-01-31T03:52:36;101757.33642578125;;;4.66;97.01
44531;BME280;30240;47.418;0.700;2023-01-31T03:55:02;101757.33642578125;;;4.66;97.01
44531;BME280;30240;47.418;0.700;2023-01-31T03:57:27;101758.04443359375;;;4.65;97.03
44531;BME280;30240;47.418;0.700;2023-01-31T03:59:51;101760.38818359375;;;4.52;97.05
44531;BME280;30240;47.418;0.700;2023-01-31T04:02:15;101763.90380859375;;;4.4;97.05
44531;BME280;30240;47.418;0.700;2023-01-31T04:04:40;101766.845703125;;;4.51;97.06
44531;BME280;30240;47.418;0.700;2023-01-31T04:07:03;101764.892578125;;;4.45;97.02
44531;BME280;30240;47.418;0.700;2023-01-31T04:09:28;101764.892578125;;;4.45;97.02
44531;BME280;30240;47.418;0.700;2023-01-31T04:11:58;101766.49169921875;;;4.4;97.0
44531;BME280;30240;47.418;0.700;2023-01-31T04:14:19;101765.2587890625;;;4.35;97.0
44531;BME280;30240;47.418;0.700;2023-01-31T04:16:43;101763.12255859375;;;4.37;96.92
44531;BME280;30240;47.418;0.700;2023-01-31T04:19:09;101760.35766601562;;;4.35;96.89
44531;BME280;30240;47.418;0.700;2023-01-31T04:21:33;101760.35766601562;;;4.35;96.89
44531;BME280;30240;47.418;0.700;2023-01-31T04:23:58;101768.701171875;;;4.21;96.82
44531;BME280;30240;47.418;0.700;2023-01-31T04:26:23;101775.67749023438;;;4.28;96.8
44531;BME280;30240;47.418;0.700;2023-01-31T04:28:49;101781.5673828125;;;4.31;96.73
44531;BME280;30240;47.418;0.700;2023-01-31T04:31:13;101781.35375976562;;;4.3;96.72
44531;BME280;30240;47.418;0.700;2023-01-31T04:33:38;101781.35375976562;;;4.3;96.72
44531;BME280;30240;47.418;0.700;2023-01-31T04:36:04;101790.39306640625;;;4.25;96.67
44531;BME280;30240;47.418;0.700;2023-01-31T04:38:28;101789.04418945312;;;4.25;96.61
44531;BME280;30240;47.418;0.700;2023-01-31T04:40:54;101792.40112304688;;;4.24;96.59
44531;BME280;30240;47.418;0.700;2023-01-31T04:43:18;101786.87744140625;;;4.27;96.52
44531;BME280;30240;47.418;0.700;2023-01-31T04:45:44;101786.87744140625;;;4.27;96.52
44531;BME280;30240;47.418;0.700;2023-01-31T04:48:09;101792.138671875;;;4.34;96.43
44531;BME280;30240;47.418;0.700;2023-01-31T04:50:34;101789.04418945312;;;4.38;96.37
44531;BME280;30240;47.418;0.700;2023-01-31T04:52:59;101793.24951171875;;;4.27;96.17
44531;BME280;30240;47.418;0.700;2023-01-31T04:55:24;101789.93530273438;;;4.31;96.05
44531;BME280;30240;47.418;0.700;2023-01-31T04:57:49;101789.93530273438;;;4.31;96.05
44531;BME280;30240;47.418;0.700;2023-01-31T05:00:14;101781.34155273438;;;4.4;95.85
44531;BME280;30240;47.418;0.700;2023-01-31T05:02:39;101783.67309570312;;;4.44;95.75
44531;BME280;30240;47.418;0.700;2023-01-31T05:05:04;101781.71997070312;;;4.56;95.6
44531;BME280;30240;47.418;0.700;2023-01-31T05:07:29;101778.466796875;;;4.51;95.47
44531;BME280;30240;47.418;0.700;2023-01-31T05:09:53;101778.466796875;;;4.51;95.47
44531;BME280;30240;47.418;0.700;2023-01-31T05:12:18;101776.52587890625;;;4.52;95.28
44531;BME280;30240;47.418;0.700;2023-01-31T05:14:44;101782.177734375;;;4.48;95.24
44531;BME280;30240;47.418;0.700;2023-01-31T05:17:09;101781.17065429688;;;4.42;95.18
44531;BME280;30240;47.418;0.700;2023-01-31T05:19:34;101782.69653320312;;;4.46;95.08
44531;BME280;30240;47.418;0.700;2023-01-31T05:21:59;101782.69653320312;;;4.46;95.08
44531;BME280;30240;47.418;0.700;2023-01-31T05:24:25;101783.11157226562;;;4.44;95.05
44531;BME280;30240;47.418;0.700;2023-01-31T05:26:49;101785.94360351562;;;4.51;94.89
44531;BME280;30240;47.418;0.700;2023-01-31T05:29:14;101787.20092773438;;;4.55;94.9
44531;BME280;30240;47.418;0.700;2023-01-31T05:31:39;101783.4228515625;;;4.51;94.73
44531;BME280;30240;47.418;0.700;2023-01-31T05:34:04;101784.1064453125;;;4.63;94.63
44531;BME280;30240;47.418;0.700;2023-01-31T05:36:29;101784.1064453125;;;4.63;94.63
44531;BME280;30240;47.418;0.700;2023-01-31T05:38:54;101787.7685546875;;;4.53;94.6
44531;BME280;30240;47.418;0.700;2023-01-31T05:41:18;101787.03002929688;;;4.53;94.52
44531;BME280;30240;47.418;0.700;2023-01-31T05:43:44;101788.4033203125;;;4.58;94.51
44531;BME280;30240;47.418;0.700;2023-01-31T05:46:08;101790.7470703125;;;4.53;94.4
44531;BME280;30240;47.418;0.700;2023-01-31T05:48:33;101790.7470703125;;;4.53;94.4
44531;BME280;30240;47.418;0.700;2023-01-31T05:50:59;101787.56103515625;;;4.59;94.51
44531;BME280;30240;47.418;0.700;2023-01-31T05:53:23;101795.93505859375;;;4.6;94.27
44531;BME280;30240;47.418;0.700;2023-01-31T05:55:48;101799.27978515625;;;4.58;94.32
44531;BME280;30240;47.418;0.700;2023-01-31T05:58:14;101795.263671875;;;4.62;94.34
44531;BME280;30240;47.418;0.700;2023-01-31T06:00:39;101795.263671875;;;4.62;94.34
44531;BME280;30240;47.418;0.700;2023-01-31T06:03:04;101790.00244140625;;;4.65;94.12
44531;BME280;30240;47.418;0.700;2023-01-31T06:05:29;101798.82202148438;;;4.66;94.18
44531;BME280;30240;47.418;0.700;2023-01-31T06:07:54;101798.46801757812;;;4.65;94.22
44531;BME280;30240;47.418;0.700;2023-01-31T06:10:19;101798.21166992188;;;4.79;94.11
44531;BME280;30240;47.418;0.700;2023-01-31T06:12:44;101798.21166992188;;;4.79;94.11
44531;BME280;30240;47.418;0.700;2023-01-31T06:15:09;101798.15673828125;;;4.59;94.07
44531;BME280;30240;47.418;0.700;2023-01-31T06:17:33;101790.20385742188;;;4.59;94.08
44531;BME280;30240;47.418;0.700;2023-01-31T06:19:58;101788.02490234375;;;4.55;94.05
44531;BME280;30240;47.418;0.700;2023-01-31T06:22:23;101789.97802734375;;;4.73;93.98
44531;BME280;30240;47.418;0.700;2023-01-31T06:24:48;101789.97802734375;;;4.73;93.98
44531;BME280;30240;47.418;0.700;2023-01-31T06:27:14;101788.8427734375;;;4.76;94.04
44531;BME280;30240;47.418;0.700;2023-01-31T06:29:38;101799.32861328125;;;4.86;93.97
44531;BME280;30240;47.418;0.700;2023-01-31T06:32:04;101800.81787109375;;;4.81;93.92
44531;BME280;30240;47.418;0.700;2023-01-31T06:34:29;101800.98266601562;;;4.8;93.96
44531;BME280;30240;47.418;0.700;2023-01-31T06:36:53;101800.98266601562;;;4.8;93.96
44531;BME280;30240;47.418;0.700;2023-01-31T06:39:18;101800.78125;;;4.87;93.89
44531;BME280;30240;47.418;0.700;2023-01-31T06:41:43;101803.49731445312;;;4.81;93.93
44531;BME280;30240;47.418;0.700;2023-01-31T06:44:09;101802.33764648438;;;4.79;94.02
44531;BME280;30240;47.418;0.700;2023-01-31T06:46:34;101806.4208984375;;;4.98;93.94
44531;BME280;30240;47.418;0.700;2023-01-31T06:48:59;101806.4208984375;;;4.98;93.94
44531;BME280;30240;47.418;0.700;2023-01-31T06:51:24;101803.99780273438;;;4.9;93.77
44531;BME280;30240;47.418;0.700;2023-01-31T06:53:49;101800.72021484375;;;4.94;93.85
44531;BME280;30240;47.418;0.700;2023-01-31T06:56:14;101806.28662109375;;;4.95;93.77
44531;BME280;30240;47.418;0.700;2023-01-31T06:58:39;101811.60888671875;;;5.08;93.76
44531;BME280;30240;47.418;0.700;2023-01-31T07:01:04;101811.60888671875;;;5.08;93.76
44531;BME280;30240;47.418;0.700;2023-01-31T07:03:29;101819.19555664062;;;5.01;93.72
44531;BME280;30240;47.418;0.700;2023-01-31T07:05:53;101816.76025390625;;;5.07;93.74
44531;BME280;30240;47.418;0.700;2023-01-31T07:08:18;101825.01831054688;;;5.0;93.81
44531;BME280;30240;47.418;0.700;2023-01-31T07:10:43;101826.171875;;;5.0;93.93
44531;BME280;30240;47.418;0.700;2023-01-31T07:13:09;101829.91943359375;;;5.05;93.97
44531;BME280;30240;47.418;0.700;2023-01-31T07:15:33;101829.91943359375;;;5.05;93.97
44531;BME280;30240;47.418;0.700;2023-01-31T07:17:58;101829.6875;;;5.05;93.76
44531;BME280;30240;47.418;0.700;2023-01-31T07:20:24;101839.2333984375;;;5.17;93.8
44531;BME280;30240;47.418;0.700;2023-01-31T07:22:52;101844.63500976562;;;5.03;94.05
44531;BME280;30240;47.418;0.700;2023-01-31T07:25:14;101851.89819335938;;;4.97;94.05
44531;BME280;30240;47.418;0.700;2023-01-31T07:27:38;101851.89819335938;;;4.97;94.05
44531;BME280;30240;47.418;0.700;2023-01-31T07:30:04;101856.54907226562;;;4.8;94.3
44531;BME280;30240;47.418;0.700;2023-01-31T07:32:29;101857.53173828125;;;4.88;94.36
44531;BME280;30240;47.418;0.700;2023-01-31T07:34:53;101855.908203125;;;4.8;94.19
44531;BME280;30240;47.418;0.700;2023-01-31T07:37:19;101862.72583007812;;;4.81;94.34
44531;BME280;30240;47.418;0.700;2023-01-31T07:39:43;101862.72583007812;;;4.81;94.34
44531;BME280;30240;47.418;0.700;2023-01-31T07:42:08;101865.50903320312;;;4.9;94.22
44531;BME280;30240;47.418;0.700;2023-01-31T07:44:34;101863.75122070312;;;4.83;94.21
44531;BME280;30240;47.418;0.700;2023-01-31T07:46:58;101876.50146484375;;;4.9;94.17
44531;BME280;30240;47.418;0.700;2023-01-31T07:49:23;101882.22045898438;;;4.79;94.0
44531;BME280;30240;47.418;0.700;2023-01-31T07:51:48;101882.22045898438;;;4.79;94.0
44531;BME280;30240;47.418;0.700;2023-01-31T07:54:14;101892.49877929688;;;4.91;94.22
44531;BME280;30240;47.418;0.700;2023-01-31T07:56:38;101896.240234375;;;5.0;94.18
44531;BME280;30240;47.418;0.700;2023-01-31T07:59:04;101896.29516601562;;;5.08;93.91
44531;BME280;30240;47.418;0.700;2023-01-31T08:01:29;101901.97143554688;;;5.07;93.76
44531;BME280;30240;47.418;0.700;2023-01-31T08:03:53;101901.97143554688;;;5.07;93.76
44531;BME280;30240;47.418;0.700;2023-01-31T08:06:19;101905.38940429688;;;4.84;93.73
44531;BME280;30240;47.418;0.700;2023-01-31T08:08:44;101913.38500976562;;;4.93;93.94
44531;BME280;30240;47.418;0.700;2023-01-31T08:11:09;101914.92309570312;;;4.9;94.06
44531;BME280;30240;47.418;0.700;2023-01-31T08:13:34;101909.87548828125;;;4.9;93.92
44531;BME280;30240;47.418;0.700;2023-01-31T08:15:58;101909.87548828125;;;4.9;93.92
44531;BME280;30240;47.418;0.700;2023-01-31T08:18:24;101910.8154296875;;;4.93;93.98
44531;BME280;30240;47.418;0.700;2023-01-31T08:20:49;101906.15844726562;;;4.87;94.26
44531;BME280;30240;47.418;0.700;2023-01-31T08:23:14;101903.21655273438;;;4.93;94.17
44531;BME280;30240;47.418;0.700;2023-01-31T08:25:39;101894.1162109375;;;5.04;94.17
44531;BME280;30240;47.418;0.700;2023-01-31T08:28:04;101894.1162109375;;;5.04;94.17
44531;BME280;30240;47.418;0.700;2023-01-31T08:30:29;101901.79443359375;;;4.97;93.97
44531;BME280;30240;47.418;0.700;2023-01-31T08:32:54;101897.59521484375;;;5.08;94.09
44531;BME280;30240;47.418;0.700;2023-01-31T08:35:20;101908.7158203125;;;5.03;94.11
44531;BME280;30240;47.418;0.700;2023-01-31T08:37:43;101903.955078125;;;5.11;94.36
44531;BME280;30240;47.418;0.700;2023-01-31T08:40:09;101899.27978515625;;;5.15;94.16
44531;BME280;30240;47.418;0.700;2023-01-31T08:42:33;101899.27978515625;;;5.15;94.16
44531;BME280;30240;47.418;0.700;2023-01-31T08:44:59;101901.28173828125;;;5.22;94.21
44531;BME280;30240;47.418;0.700;2023-01-31T08:47:24;101900.1220703125;;;5.29;94.07
44531;BME280;30240;47.418;0.700;2023-01-31T08:49:49;101899.54833984375;;;5.49;93.92
44531;BME280;30240;47.418;0.700;2023-01-31T08:52:13;101901.0009765625;;;5.43;93.63
44531;BME280;30240;47.418;0.700;2023-01-31T08:54:38;101901.0009765625;;;5.43;93.63
44531;BME280;30240;47.418;0.700;2023-01-31T08:57:04;101905.2734375;;;5.39;94.16
44531;BME280;30240;47.418;0.700;2023-01-31T08:59:29;101910.48583984375;;;5.42;94.05
44531;BME280;30240;47.418;0.700;2023-01-31T09:01:53;101913.134765625;;;5.38;94.43
44531;BME280;30240;47.418;0.700;2023-01-31T09:04:18;101919.47021484375;;;5.52;94.21
44531;BME280;30240;47.418;0.700;2023-01-31T09:06:43;101919.47021484375;;;5.52;94.21
44531;BME280;30240;47.418;0.700;2023-01-31T09:09:08;101920.56274414062;;;5.69;94.3
44531;BME280;30240;47.418;0.700;2023-01-31T09:11:34;101930.05981445312;;;5.49;94.44
44531;BME280;30240;47.418;0.700;2023-01-31T09:13:59;101929.91943359375;;;5.53;94.55
44531;BME280;30240;47.418;0.700;2023-01-31T09:16:24;101931.9580078125;;;5.38;94.83
44531;BME280;30240;47.418;0.700;2023-01-31T09:18:48;101931.9580078125;;;5.38;94.83
44531;BME280;30240;47.418;0.700;2023-01-31T09:21:15;101933.41674804688;;;5.4;94.58
44531;BME280;30240;47.418;0.700;2023-01-31T09:23:39;101939.111328125;;;5.42;94.62
44531;BME280;30240;47.418;0.700;2023-01-31T09:26:04;101936.44409179688;;;5.49;94.67
44531;BME280;30240;47.418;0.700;2023-01-31T09:28:29;101939.9169921875;;;5.63;94.43
44531;BME280;30240;47.418;0.700;2023-01-31T09:30:54;101939.9169921875;;;5.63;94.43
44531;BME280;30240;47.418;0.700;2023-01-31T09:33:19;101941.54663085938;;;5.61;94.24
44531;BME280;30240;47.418;0.700;2023-01-31T09:35:56;101935.51635742188;;;5.81;94.16
44531;BME280;30240;47.418;0.700;2023-01-31T09:38:08;101933.84399414062;;;5.63;94.44
44531;BME280;30240;47.418;0.700;2023-01-31T09:40:37;101934.9853515625;;;5.5;94.19
44531;BME280;30240;47.418;0.700;2023-01-31T09:43:00;101934.9853515625;;;5.5;94.19
44531;BME280;30240;47.418;0.700;2023-01-31T09:45:28;101933.056640625;;;5.7;94.26
44531;BME280;30240;47.418;0.700;2023-01-31T09:47:51;101939.5751953125;;;5.66;94.4
44531;BME280;30240;47.418;0.700;2023-01-31T09:50:17;101940.8935546875;;;5.8;94.08
44531;BME280;30240;47.418;0.700;2023-01-31T09:52:39;101943.17016601562;;;5.7;94.0
44531;BME280;30240;47.418;0.700;2023-01-31T09:55:04;101943.17016601562;;;5.7;94.0
44531;BME280;30240;47.418;0.700;2023-01-31T09:57:34;101950.86059570312;;;6.08;94.01
44531;BME280;30240;47.418;0.700;2023-01-31T09:59:58;101950.98266601562;;;5.91;93.64
44531;BME280;30240;47.418;0.700;2023-01-31T10:02:42;101947.39990234375;;;5.84;93.79
44531;BME280;30240;47.418;0.700;2023-01-31T10:05:01;101947.998046875;;;6.05;94.02
44531;BME280;30240;47.418;0.700;2023-01-31T10:07:13;101947.998046875;;;6.05;94.02
44531;BME280;30240;47.418;0.700;2023-01-31T10:09:34;101956.87255859375;;;6.18;93.56
44531;BME280;30240;47.418;0.700;2023-01-31T10:12:02;101945.50170898438;;;6.06;93.41
44531;BME280;30240;47.418;0.700;2023-01-31T10:14:30;101934.75952148438;;;6.43;93.16
44531;BME280;30240;47.418;0.700;2023-01-31T10:16:55;101929.87670898438;;;6.15;93.08
44531;BME280;30240;47.418;0.700;2023-01-31T10:19:21;101926.93481445312;;;6.5;93.19
44531;BME280;30240;47.418;0.700;2023-01-31T10:19:21;101926.93481445312;;;6.5;93.19
44531;BME280;30240;47.418;0.700;2023-01-31T10:21:41;101926.93481445312;;;6.5;93.19
44531;BME280;30240;47.418;0.700;2023-01-31T10:24:12;101927.87475585938;;;6.36;92.91
44531;BME280;30240;47.418;0.700;2023-01-31T10:26:30;101927.9052734375;;;6.32;92.28
44531;BME280;30240;47.418;0.700;2023-01-31T10:28:57;101925.42114257812;;;6.63;92.16
44531;BME280;30240;47.418;0.700;2023-01-31T10:31:26;101926.70288085938;;;6.75;90.88
44531;BME280;30240;47.418;0.700;2023-01-31T10:33:48;101926.70288085938;;;6.75;90.88
44531;BME280;30240;47.418;0.700;2023-01-31T10:36:12;101930.48706054688;;;6.89;90.69
44531;BME280;30240;47.418;0.700;2023-01-31T10:38:36;101925.23193359375;;;6.68;90.73
44531;BME280;30240;47.418;0.700;2023-01-31T10:41:05;101929.65698242188;;;7.02;89.96
44531;BME280;30240;47.418;0.700;2023-01-31T10:43:37;101941.2353515625;;;6.95;90.63
44531;BME280;30240;47.418;0.700;2023-01-31T10:45:48;101941.2353515625;;;6.95;90.63
44531;BME280;30240;47.418;0.700;2023-01-31T10:48:15;101937.7685546875;;;7.27;90.2
44531;BME280;30240;47.418;0.700;2023-01-31T10:50:43;101933.447265625;;;6.84;89.28
44531;BME280;30240;47.418;0.700;2023-01-31T10:50:51;101933.447265625;;;6.84;89.28
44531;BME280;30240;47.418;0.700;2023-01-31T10:50:56;101933.447265625;;;6.84;89.28
44531;BME280;30240;47.418;0.700;2023-01-31T10:51:02;101933.447265625;;;6.84;89.28
44531;BME280;30240;47.418;0.700;2023-01-31T10:53:35;101935.36987304688;;;7.09;89.23
44531;BME280;30240;47.418;0.700;2023-01-31T10:55:43;101936.8896484375;;;7.27;88.4
44531;BME280;30240;47.418;0.700;2023-01-31T10:57:54;101936.8896484375;;;7.27;88.4
44531;BME280;30240;47.418;0.700;2023-01-31T11:00:21;101931.5673828125;;;6.77;88.06